Time;durP1;ratioP1;P1;durP2;ratioP2;P2;SDS_P1;SDS_P2;PMS_P1;PMS_P2;Temp;Humidity;BMP_temperature;BMP_pressure;BME280_temperature;BME280_humidity;BME280_pressure;Samples;Min_cycle;Max_cycle;Signal;HPM_P1;HPM_P2
2021/12/30 00:00:34;;;;;;;34.67;5.50;;;9.80;99.90;;;;;;5097678;28;20493;-52
2021/12/30 00:02:59;;;;;;;37.53;5.70;;;9.80;99.90;;;;;;5092693;28;20504;-57
2021/12/30 00:05:25;;;;;;;45.93;7.93;;;9.80;99.90;;;;;;5098043;28;20048;-55
2021/12/30 00:07:51;;;;;;;39.22;6.50;;;9.80;99.90;;;;;;5092469;28;20051;-55
2021/12/30 00:10:17;;;;;;;41.10;6.65;;;9.70;99.90;;;;;;5098339;28;20047;-57
2021/12/30 00:12:42;;;;;;;38.42;7.55;;;9.70;99.90;;;;;;5092247;28;20040;-57
2021/12/30 00:15:09;;;;;;;58.83;7.23;;;9.60;99.90;;;;;;5093942;28;20036;-56
2021/12/30 00:17:35;;;;;;;;;;;9.60;99.90;;;;;;5074591;28;20107;-58
2021/12/30 00:20:03;;;;;;;66.93;7.75;;;9.60;99.90;;;;;;5075078;28;20408;-58
2021/12/30 00:22:29;;;;;;;38.42;6.78;;;9.60;99.90;;;;;;5095585;28;20051;-57
2021/12/30 00:24:55;;;;;;;42.50;6.38;;;9.60;99.90;;;;;;5099580;28;20043;-58
2021/12/30 00:27:20;;;;;;;40.88;7.05;;;9.60;99.90;;;;;;5079039;28;20404;-58
2021/12/30 00:29:46;;;;;;;38.33;6.97;;;9.50;99.90;;;;;;5092227;28;20030;-58
2021/12/30 00:32:12;;;;;;;46.00;7.10;;;9.50;99.90;;;;;;5092469;28;20413;-58
2021/12/30 00:34:37;;;;;;;41.30;7.33;;;9.50;99.90;;;;;;5092184;28;20039;-57
2021/12/30 00:37:03;;;;;;;34.63;5.77;;;9.50;99.90;;;;;;5074247;28;20074;-58
2021/12/30 00:39:28;;;;;;;40.20;6.47;;;9.50;99.90;;;;;;5094697;28;20036;-59
2021/12/30 00:41:54;;;;;;;38.73;6.97;;;9.40;99.90;;;;;;5084912;28;20040;-58
2021/12/30 00:44:20;;;;;;;35.13;5.80;;;9.40;99.90;;;;;;5098502;28;20036;-57
2021/12/30 00:46:45;;;;;;;57.63;7.47;;;9.40;99.90;;;;;;5105252;28;20093;-58
2021/12/30 00:49:13;;;;;;;40.37;7.33;;;9.40;99.90;;;;;;5092252;28;20044;-58
2021/12/30 00:51:39;;;;;;;38.17;6.78;;;9.40;99.90;;;;;;5091774;28;20384;-57
2021/12/30 00:54:05;;;;;;;42.22;6.85;;;9.40;99.90;;;;;;5092147;28;20028;-56
2021/12/30 00:56:30;;;;;;;38.40;7.97;;;9.40;99.90;;;;;;5092028;28;20047;-58
2021/12/30 00:58:56;;;;;;;34.13;5.50;;;9.30;99.90;;;;;;5091981;28;20062;-58
2021/12/30 01:01:22;;;;;;;41.80;7.75;;;9.30;99.90;;;;;;5094772;28;20055;-58
2021/12/30 01:03:48;;;;;;;36.13;6.38;;;9.30;99.90;;;;;;5091855;28;20075;-57
2021/12/30 01:06:14;;;;;;;42.35;7.40;;;9.30;99.90;;;;;;5108128;28;20058;-57
2021/12/30 01:08:39;;;;;;;36.23;6.17;;;9.30;99.90;;;;;;5091740;28;20444;-58
2021/12/30 01:11:08;;;;;;;30.40;6.77;;;9.30;99.90;;;;;;5107400;28;20289;-56
2021/12/30 01:13:39;;;;;;;42.15;8.35;;;9.30;99.90;;;;;;5095503;28;20043;-57
2021/12/30 01:16:14;;;;;;;38.25;7.78;;;9.30;99.90;;;;;;5094671;28;20043;-57
2021/12/30 01:18:56;;;;;;;45.63;6.60;;;9.20;99.90;;;;;;5093307;28;20039;-58
2021/12/30 01:21:25;;;;;;;36.55;7.22;;;9.20;99.90;;;;;;5103226;28;20508;-58
2021/12/30 01:23:51;;;;;;;36.58;7.50;;;9.20;99.90;;;;;;5111257;28;20051;-58
2021/12/30 01:26:17;;;;;;;39.60;6.95;;;9.20;99.90;;;;;;5098563;28;20314;-58
2021/12/30 01:28:43;;;;;;;41.03;6.90;;;9.20;99.90;;;;;;5110850;28;20157;-59
2021/12/30 01:31:08;;;;;;;45.20;8.60;;;9.20;99.90;;;;;;5090917;28;20278;-57
2021/12/30 01:33:34;;;;;;;46.47;8.55;;;9.10;99.90;;;;;;5108202;28;20035;-59
2021/12/30 01:36:00;;;;;;;38.70;5.47;;;9.10;99.90;;;;;;5100642;28;20577;-59
2021/12/30 01:38:25;;;;;;;38.00;8.47;;;9.10;99.90;;;;;;5090325;28;20269;-58
2021/12/30 01:40:53;;;;;;;35.22;8.27;;;9.10;99.90;;;;;;5080248;28;20032;-58
2021/12/30 01:43:20;;;;;;;43.13;7.55;;;9.00;99.90;;;;;;5105424;28;20071;-57
2021/12/30 01:45:46;;;;;;;43.58;8.65;;;9.00;99.90;;;;;;5093340;28;20036;-58
2021/12/30 01:48:12;;;;;;;43.38;6.85;;;9.00;99.90;;;;;;5091110;28;20085;-58
2021/12/30 01:50:38;;;;;;;53.83;8.52;;;9.00;99.90;;;;;;5087814;28;20525;-58
2021/12/30 01:53:04;;;;;;;31.52;6.38;;;9.00;99.90;;;;;;5110794;28;20114;-59
2021/12/30 01:55:33;;;;;;;30.02;6.78;;;9.00;99.90;;;;;;5091168;28;20035;-58
2021/12/30 01:58:00;;;;;;;34.35;7.72;;;9.00;99.90;;;;;;5110465;28;20058;-58
2021/12/30 02:00:28;;;;;;;44.63;7.57;;;9.00;99.90;;;;;;5107443;28;20043;-58
2021/12/30 02:02:54;;;;;;;45.05;6.97;;;9.00;99.90;;;;;;5110640;28;20043;-57
2021/12/30 02:05:20;;;;;;;49.60;8.25;;;9.10;99.90;;;;;;5100288;28;20118;-55
2021/12/30 02:07:46;;;;;;;46.67;9.50;;;9.10;99.90;;;;;;5091241;28;20043;-58
2021/12/30 02:10:13;;;;;;;51.95;8.95;;;9.20;99.90;;;;;;5100096;28;20505;-57
2021/12/30 02:12:40;;;;;;;57.50;10.70;;;9.30;99.90;;;;;;5072310;28;20055;-56
2021/12/30 02:15:12;;;;;;;47.90;12.40;;;9.40;99.90;;;;;;5093707;28;20036;-56
2021/12/30 02:17:38;;;;;;;48.47;10.18;;;9.40;99.90;;;;;;5090677;28;20046;-54
2021/12/30 02:20:10;;;;;;;53.25;11.35;;;9.40;99.90;;;;;;5103419;28;20493;-58
2021/12/30 02:22:36;;;;;;;50.90;10.07;;;9.40;99.90;;;;;;5055525;28;20051;-54
2021/12/30 02:25:04;;;;;;;52.28;12.15;;;9.50;99.90;;;;;;5057167;28;20040;-57
2021/12/30 02:27:31;;;;;;;52.00;12.15;;;9.50;99.90;;;;;;5101035;28;20104;-57
2021/12/30 02:29:56;;;;;;;;;;;9.50;99.90;;;;;;5079705;28;20051;-58
2021/12/30 02:32:22;;;;;;;47.28;12.18;;;9.60;99.90;;;;;;5090457;28;19924;-57
2021/12/30 02:34:49;;;;;;;52.92;12.77;;;9.60;99.90;;;;;;5080112;28;20388;-58
2021/12/30 02:37:17;;;;;;;45.42;13.10;;;9.60;99.90;;;;;;5115477;28;20042;-58
2021/12/30 02:39:47;;;;;;;50.58;13.27;;;9.60;99.90;;;;;;5109058;28;20060;-57
2021/12/30 02:42:13;;;;;;;51.50;13.95;;;9.70;99.90;;;;;;5069460;28;20059;-58
2021/12/30 02:44:39;;;;;;;45.77;14.50;;;9.60;99.90;;;;;;5097920;28;20039;-58
2021/12/30 02:47:05;;;;;;;58.42;15.73;;;9.70;99.90;;;;;;5091072;28;20040;-56
2021/12/30 02:49:30;;;;;;;47.55;15.18;;;9.70;99.90;;;;;;5082291;28;20077;-57
2021/12/30 02:51:56;;;;;;;46.10;13.97;;;9.80;99.90;;;;;;5109874;28;20044;-56
2021/12/30 02:54:22;;;;;;;47.17;12.88;;;9.70;99.90;;;;;;5109769;28;20051;-57
2021/12/30 02:56:47;;;;;;;56.70;16.77;;;9.80;99.90;;;;;;5092294;28;20120;-56
2021/12/30 02:59:15;;;;;;;55.47;15.87;;;9.70;99.90;;;;;;5097867;28;20040;-57
2021/12/30 03:01:40;;;;;;;56.03;17.90;;;9.80;99.90;;;;;;5087109;28;20040;-57
2021/12/30 03:04:06;;;;;;;58.93;18.10;;;9.80;99.90;;;;;;5110104;28;20032;-56
2021/12/30 03:06:33;;;;;;;53.22;17.52;;;9.80;99.90;;;;;;5095251;28;20063;-53
2021/12/30 03:08:59;;;;;;;52.22;15.25;;;9.80;99.90;;;;;;5090914;28;20048;-54
2021/12/30 03:11:26;;;;;;;57.33;16.00;;;9.80;99.90;;;;;;5096988;28;20032;-57
2021/12/30 03:13:54;;;;;;;55.38;14.52;;;9.80;99.90;;;;;;5092693;28;20245;-55
2021/12/30 03:16:23;;;;;;;48.92;14.65;;;9.90;99.90;;;;;;5098251;28;20116;-53
2021/12/30 03:18:50;;;;;;;58.67;15.75;;;9.90;99.90;;;;;;5072380;28;20036;-56
2021/12/30 03:21:18;;;;;;;59.45;16.40;;;9.90;99.90;;;;;;5088719;28;20166;-56
2021/12/30 03:23:44;;;;;;;56.33;16.70;;;9.90;99.90;;;;;;5092172;28;20055;-57
2021/12/30 03:26:10;;;;;;;60.05;17.50;;;10.00;99.90;;;;;;5082959;28;20043;-55
2021/12/30 03:28:36;;;;;;;55.65;15.77;;;10.00;99.90;;;;;;5111927;28;20040;-57
2021/12/30 03:31:02;;;;;;;;;;;10.00;99.90;;;;;;5101062;28;20040;-58
2021/12/30 03:33:30;;;;;;;55.20;14.32;;;10.00;99.90;;;;;;5113651;28;20387;-56
2021/12/30 03:35:59;;;;;;;50.90;14.30;;;10.00;99.90;;;;;;5106928;28;20450;-58
2021/12/30 03:38:26;;;;;;;60.28;15.75;;;10.00;99.90;;;;;;5089438;28;20039;-58
2021/12/30 03:40:52;;;;;;;44.70;16.08;;;10.00;99.90;;;;;;5103874;28;20229;-58
2021/12/30 03:43:17;;;;;;;58.05;18.35;;;10.00;99.90;;;;;;5113430;28;20148;-57
2021/12/30 03:45:44;;;;;;;60.57;18.43;;;10.00;99.90;;;;;;5095020;28;20532;-58
2021/12/30 03:48:10;;;;;;;56.20;16.92;;;10.00;99.90;;;;;;5113063;28;20433;-56
2021/12/30 03:50:43;;;;;;;49.63;16.60;;;10.00;99.90;;;;;;5111274;28;20042;-56
2021/12/30 03:53:08;;;;;;;59.20;19.10;;;10.00;99.90;;;;;;5112956;28;20044;-58
2021/12/30 03:55:34;;;;;;;45.47;18.07;;;10.00;99.90;;;;;;5112420;28;20039;-57
2021/12/30 03:57:59;;;;;;;63.27;17.83;;;10.00;99.90;;;;;;5095146;28;20697;-57
2021/12/30 04:00:28;;;;;;;57.13;17.90;;;10.00;99.90;;;;;;5103084;28;20032;-58
2021/12/30 04:02:54;;;;;;;55.13;18.30;;;10.00;99.90;;;;;;5094326;28;20075;-57
2021/12/30 04:05:21;;;;;;;62.25;18.23;;;10.00;99.90;;;;;;5080593;28;20443;-61
2021/12/30 04:07:47;;;;;;;69.70;20.30;;;10.00;99.90;;;;;;5107961;28;20042;-58
2021/12/30 04:10:14;;;;;;;52.10;18.23;;;9.90;99.90;;;;;;5094418;28;20039;-58
2021/12/30 04:12:41;;;;;;;54.92;19.17;;;9.90;99.90;;;;;;5088812;28;20696;-56
2021/12/30 04:15:08;;;;;;;58.15;19.88;;;9.90;99.90;;;;;;5097824;28;20036;-57
2021/12/30 04:17:34;;;;;;;58.42;19.60;;;9.90;99.90;;;;;;5086988;28;20557;-57
2021/12/30 04:19:59;;;;;;;60.80;19.10;;;10.00;99.90;;;;;;5112599;28;20078;-58
2021/12/30 04:22:25;;;;;;;55.60;20.00;;;10.00;99.90;;;;;;5101092;28;20474;-59
2021/12/30 04:24:52;;;;;;;69.60;21.55;;;10.00;99.90;;;;;;5093085;28;20062;-58
2021/12/30 04:27:18;;;;;;;60.43;20.80;;;10.10;99.90;;;;;;5101759;28;20032;-58
2021/12/30 04:29:43;;;;;;;62.13;18.70;;;10.10;99.90;;;;;;5100340;28;20278;-58
2021/12/30 04:32:09;;;;;;;62.80;17.83;;;10.10;99.90;;;;;;5100089;28;20301;-58
2021/12/30 04:34:35;;;;;;;67.07;21.37;;;10.10;99.90;;;;;;5089739;28;20717;-57
2021/12/30 04:37:01;;;;;;;57.67;18.77;;;10.10;99.90;;;;;;5100285;28;20373;-58
2021/12/30 04:39:28;;;;;;;64.45;20.13;;;10.10;99.90;;;;;;5110358;28;20067;-58
2021/12/30 04:41:54;;;;;;;64.10;20.30;;;10.20;99.90;;;;;;5093425;28;20040;-58
2021/12/30 04:44:20;;;;;;;60.33;20.63;;;10.20;99.90;;;;;;5093469;28;20042;-58
2021/12/30 04:46:46;;;;;;;63.47;20.45;;;10.30;99.90;;;;;;5093157;28;20031;-57
2021/12/30 04:49:11;;;;;;;62.03;19.63;;;10.30;99.90;;;;;;5111995;28;20485;-58
2021/12/30 04:51:37;;;;;;;73.05;21.27;;;10.30;99.90;;;;;;5111282;28;20046;-58
2021/12/30 04:54:03;;;;;;;63.13;19.80;;;10.30;99.90;;;;;;5093348;28;20095;-57
2021/12/30 04:56:28;;;;;;;70.70;21.40;;;10.30;99.90;;;;;;5074097;28;20043;-58
2021/12/30 04:58:54;;;;;;;68.55;19.33;;;10.30;99.90;;;;;;5099047;28;20078;-58
2021/12/30 05:01:20;;;;;;;80.90;21.70;;;10.30;99.90;;;;;;5111204;28;20115;-57
2021/12/30 05:03:45;;;;;;;63.53;22.02;;;10.40;99.90;;;;;;5095542;28;20712;-58
2021/12/30 05:06:11;;;;;;;76.53;22.17;;;10.40;99.90;;;;;;5092644;28;20067;-58
2021/12/30 05:08:37;;;;;;;59.77;21.70;;;10.40;99.90;;;;;;5106269;28;20511;-58
2021/12/30 05:11:04;;;;;;;62.38;20.67;;;10.40;99.90;;;;;;5111280;28;20114;-56
2021/12/30 05:13:31;;;;;;;66.47;22.58;;;10.50;99.90;;;;;;5101276;28;20032;-58
2021/12/30 05:15:56;;;;;;;58.85;21.45;;;10.50;99.90;;;;;;5091565;28;20048;-57
2021/12/30 05:18:30;;;;;;;59.08;22.83;;;10.50;99.90;;;;;;5099969;28;20082;-57
2021/12/30 05:20:56;;;;;;;73.60;22.33;;;10.50;99.90;;;;;;5090794;28;20557;-56
2021/12/30 05:23:21;;;;;;;65.20;23.23;;;10.60;99.90;;;;;;5083672;28;20168;-58
2021/12/30 05:25:47;;;;;;;60.13;22.33;;;10.60;99.90;;;;;;5110145;28;20122;-56
2021/12/30 05:28:13;;;;;;;59.47;22.63;;;10.50;99.90;;;;;;5101783;28;20086;-58
2021/12/30 05:30:39;;;;;;;63.80;21.15;;;10.60;99.90;;;;;;5096576;28;20704;-58
2021/12/30 05:33:05;;;;;;;61.37;23.93;;;10.60;99.90;;;;;;5102102;28;20071;-58
2021/12/30 05:35:31;;;;;;;73.95;24.70;;;10.60;99.90;;;;;;5116692;28;20278;-58
2021/12/30 05:37:57;;;;;;;70.45;23.90;;;10.60;99.90;;;;;;5111866;28;20065;-58
2021/12/30 05:40:23;;;;;;;71.03;23.45;;;10.70;99.90;;;;;;5111017;28;20035;-58
2021/12/30 05:42:49;;;;;;;71.38;26.10;;;10.70;99.90;;;;;;5109311;28;20031;-57
2021/12/30 05:45:16;;;;;;;70.40;25.80;;;10.70;99.90;;;;;;5091449;28;20044;-57
2021/12/30 05:47:46;;;;;;;82.53;27.25;;;10.70;99.90;;;;;;5091396;28;20046;-57
2021/12/30 05:50:13;;;;;;;75.22;27.80;;;10.70;99.90;;;;;;5106619;28;20047;-55
2021/12/30 05:52:39;;;;;;;73.90;24.92;;;10.80;99.90;;;;;;5110496;28;20043;-57
2021/12/30 05:55:06;;;;;;;74.38;25.80;;;10.80;99.90;;;;;;5078610;28;20047;-57
2021/12/30 05:57:31;;;;;;;68.45;24.75;;;10.80;99.90;;;;;;5091671;28;20576;-53
2021/12/30 05:59:57;;;;;;;81.53;28.27;;;10.90;99.90;;;;;;5103388;28;20031;-57
2021/12/30 06:02:23;;;;;;;85.25;28.67;;;10.90;99.90;;;;;;5110550;28;20067;-57
2021/12/30 06:04:49;;;;;;;73.30;26.65;;;10.90;99.90;;;;;;5100614;28;20464;-56
2021/12/30 06:07:14;;;;;;;75.10;24.13;;;10.90;99.90;;;;;;5090897;28;20109;-56
2021/12/30 06:09:41;;;;;;;74.13;25.63;;;11.00;99.90;;;;;;5091746;28;20036;-57
2021/12/30 06:12:07;;;;;;;76.22;26.30;;;11.00;99.90;;;;;;5090710;28;20411;-57
2021/12/30 06:14:33;;;;;;;79.75;26.17;;;11.00;99.90;;;;;;5097586;28;20042;-57
2021/12/30 06:16:59;;;;;;;76.43;25.13;;;11.10;99.90;;;;;;5098987;28;20123;-58
2021/12/30 06:19:25;;;;;;;84.95;29.30;;;11.10;99.90;;;;;;5108490;28;20043;-58
2021/12/30 06:21:51;;;;;;;76.65;27.23;;;11.10;99.90;;;;;;5110554;28;20035;-58
2021/12/30 06:24:16;;;;;;;69.93;25.60;;;11.20;99.90;;;;;;5106320;28;20028;-57
2021/12/30 06:26:42;;;;;;;82.07;25.50;;;11.20;99.90;;;;;;5110342;28;20404;-59
2021/12/30 06:29:07;;;;;;;62.17;23.53;;;11.20;99.90;;;;;;5100664;28;20286;-54
2021/12/30 06:31:33;;;;;;;72.63;26.67;;;11.20;99.90;;;;;;5108627;28;20028;-58
2021/12/30 06:33:59;;;;;;;70.25;25.98;;;11.30;99.90;;;;;;5110000;28;20410;-58
2021/12/30 06:36:25;;;;;;;69.70;25.87;;;11.30;99.90;;;;;;5091481;28;20043;-58
2021/12/30 06:38:51;;;;;;;67.80;24.70;;;11.30;99.90;;;;;;5072145;28;20032;-55
2021/12/30 06:41:16;;;;;;;72.22;26.70;;;11.30;99.90;;;;;;5102446;28;20112;-58
2021/12/30 06:43:42;;;;;;;73.17;26.00;;;11.30;99.90;;;;;;5103126;28;20035;-57
2021/12/30 06:46:10;;;;;;;67.07;23.92;;;11.30;99.90;;;;;;5101292;28;20097;-58
2021/12/30 06:48:35;;;;;;;71.80;25.92;;;11.40;99.90;;;;;;5099731;28;20051;-58
2021/12/30 06:51:04;;;;;;;66.72;23.95;;;11.40;99.90;;;;;;5099246;28;20396;-58
2021/12/30 06:53:30;;;;;;;63.92;24.23;;;11.40;99.90;;;;;;5110043;28;20495;-57
2021/12/30 06:55:56;;;;;;;66.90;24.25;;;11.40;99.90;;;;;;5097680;28;20493;-57
2021/12/30 06:58:22;;;;;;;55.35;23.75;;;11.50;99.90;;;;;;5097439;28;20073;-58
2021/12/30 07:00:51;;;;;;;51.00;21.40;;;11.50;99.90;;;;;;5103074;28;20400;-58
2021/12/30 07:03:17;;;;;;;63.50;23.83;;;11.50;99.90;;;;;;5095571;28;20089;-58
2021/12/30 07:05:43;;;;;;;47.63;20.10;;;11.50;99.90;;;;;;5103014;28;20044;-58
2021/12/30 07:08:09;;;;;;;56.38;22.42;;;11.60;99.90;;;;;;5114220;28;20065;-57
2021/12/30 07:10:34;;;;;;;53.15;22.58;;;11.60;99.90;;;;;;5105419;28;20043;-58
2021/12/30 07:13:00;;;;;;;49.75;21.67;;;11.60;99.90;;;;;;5095424;28;20040;-58
2021/12/30 07:15:25;;;;;;;48.80;20.20;;;11.60;99.90;;;;;;5094579;28;20036;-58
2021/12/30 07:17:51;;;;;;;48.08;19.85;;;11.60;99.90;;;;;;5097792;28;20043;-54
2021/12/30 07:20:17;;;;;;;45.37;18.77;;;11.60;99.90;;;;;;5103689;28;20089;-58
2021/12/30 07:22:42;;;;;;;47.58;19.75;;;11.60;99.90;;;;;;5093834;28;20207;-58
2021/12/30 07:25:15;;;;;;;40.10;17.75;;;11.70;99.90;;;;;;5093829;28;20492;-58
2021/12/30 07:27:41;;;;;;;33.53;14.02;;;11.70;99.90;;;;;;5110627;28;20039;-58
2021/12/30 07:30:07;;;;;;;30.77;13.65;;;11.70;99.90;;;;;;5112850;28;20050;-58
2021/12/30 07:32:33;;;;;;;28.42;11.52;;;11.70;99.90;;;;;;5091288;28;20043;-56
2021/12/30 07:34:58;;;;;;;27.48;11.48;;;11.70;99.90;;;;;;5113419;28;20059;-58
2021/12/30 07:37:24;;;;;;;26.20;11.17;;;11.70;99.90;;;;;;5098955;28;20107;-57
2021/12/30 07:39:49;;;;;;;31.27;12.13;;;11.80;99.90;;;;;;5092982;28;20044;-58
2021/12/30 07:42:15;;;;;;;24.80;10.57;;;11.70;99.90;;;;;;5088301;28;20285;-58
2021/12/30 07:44:43;;;;;;;23.02;10.70;;;11.70;99.90;;;;;;5102857;28;20036;-58
2021/12/30 07:47:09;;;;;;;13.95;7.70;;;11.70;99.90;;;;;;5104186;28;20131;-56
2021/12/30 07:49:38;;;;;;;19.50;10.73;;;11.80;99.90;;;;;;5084960;28;20150;-57
2021/12/30 07:52:05;;;;;;;16.52;9.10;;;11.80;99.90;;;;;;5093240;28;20346;-57
2021/12/30 07:54:30;;;;;;;13.82;7.22;;;11.80;99.90;;;;;;5083726;28;20036;-57
2021/12/30 07:56:56;;;;;;;14.13;7.22;;;11.70;99.90;;;;;;5112512;28;20139;-58
2021/12/30 07:59:22;;;;;;;10.68;6.72;;;11.80;99.90;;;;;;5113091;28;20377;-58
2021/12/30 08:01:48;;;;;;;10.63;5.63;;;11.80;99.90;;;;;;5093137;28;20035;-58
2021/12/30 08:04:14;;;;;;;9.10;6.00;;;11.80;99.90;;;;;;5094410;28;20032;-58
2021/12/30 08:06:39;;;;;;;11.10;7.10;;;11.80;99.90;;;;;;5092257;28;20403;-58
2021/12/30 08:09:06;;;;;;;12.45;6.80;;;11.80;99.90;;;;;;5091793;28;20036;-58
2021/12/30 08:11:32;;;;;;;;;;;11.80;99.90;;;;;;5099861;28;20032;-57
2021/12/30 08:13:59;;;;;;;11.05;6.13;;;11.80;99.90;;;;;;5087104;28;19923;-58
2021/12/30 08:16:25;;;;;;;8.13;5.32;;;11.80;99.90;;;;;;5092804;28;20116;-58
2021/12/30 08:18:51;;;;;;;10.07;4.82;;;11.80;99.90;;;;;;5092785;28;20215;-58
2021/12/30 08:21:17;;;;;;;7.32;4.45;;;11.80;99.90;;;;;;5092321;28;20477;-59
2021/12/30 08:23:43;;;;;;;5.30;4.28;;;11.80;99.90;;;;;;5110168;28;20036;-58
2021/12/30 08:26:08;;;;;;;8.90;5.78;;;11.80;99.90;;;;;;5103710;28;20734;-56
2021/12/30 08:28:34;;;;;;;9.40;6.23;;;11.90;99.90;;;;;;5092381;28;20330;-58
2021/12/30 08:30:59;;;;;;;10.23;6.17;;;11.90;99.90;;;;;;5092450;28;20282;-59
2021/12/30 08:33:25;;;;;;;9.43;6.33;;;11.90;99.90;;;;;;5096045;28;20500;-58
2021/12/30 08:35:51;;;;;;;7.82;5.15;;;11.90;99.90;;;;;;5097971;28;20271;-58
2021/12/30 08:38:17;;;;;;;8.00;5.35;;;11.90;99.90;;;;;;5094299;28;20036;-57
2021/12/30 08:40:47;;;;;;;9.80;6.03;;;11.90;99.90;;;;;;5074514;28;20031;-58
2021/12/30 08:43:13;;;;;;;8.95;6.13;;;12.00;99.90;;;;;;5092891;28;20040;-58
2021/12/30 08:45:39;;;;;;;10.68;7.75;;;12.00;99.90;;;;;;5094238;28;20123;-58
2021/12/30 08:48:05;;;;;;;14.02;9.23;;;12.00;99.90;;;;;;5110639;28;20043;-57
2021/12/30 08:50:32;;;;;;;16.08;9.95;;;12.10;99.90;;;;;;5101416;28;20058;-56
2021/12/30 08:52:57;;;;;;;15.10;10.02;;;12.10;99.90;;;;;;5111813;28;20195;-55
2021/12/30 08:55:23;;;;;;;19.83;12.27;;;12.10;99.90;;;;;;5091228;28;20548;-55
2021/12/30 08:57:49;;;;;;;20.63;12.35;;;12.10;99.90;;;;;;5110269;28;20773;-57
2021/12/30 09:00:23;;;;;;;16.92;11.68;;;12.20;99.90;;;;;;5075996;28;20040;-57
2021/12/30 09:02:49;;;;;;;20.42;12.82;;;12.20;99.90;;;;;;5108208;28;20046;-55
2021/12/30 09:05:15;;;;;;;20.13;13.38;;;12.20;99.90;;;;;;5097621;28;20031;-57
2021/12/30 09:07:41;;;;;;;16.80;12.95;;;12.20;99.90;;;;;;5089426;28;20084;-56
2021/12/30 09:10:09;;;;;;;27.65;14.77;;;12.20;99.90;;;;;;5091105;28;20035;-57
2021/12/30 09:12:35;;;;;;;21.25;14.75;;;12.20;99.90;;;;;;5094104;28;20039;-56
2021/12/30 09:15:01;;;;;;;18.92;11.82;;;12.30;99.90;;;;;;5068198;28;20224;-56
2021/12/30 09:17:27;;;;;;;19.00;12.13;;;12.30;99.90;;;;;;5084114;28;20476;-57
2021/12/30 09:19:53;;;;;;;20.88;12.35;;;12.30;99.90;;;;;;5111065;28;20032;-56
2021/12/30 09:22:18;;;;;;;16.05;10.93;;;12.40;99.90;;;;;;5090235;28;20412;-56
2021/12/30 09:24:44;;;;;;;13.00;9.00;;;12.40;99.90;;;;;;5081986;28;20043;-56
2021/12/30 09:27:09;;;;;;;18.92;9.85;;;12.40;99.90;;;;;;5072282;28;20086;-52
2021/12/30 09:29:35;;;;;;;13.75;9.07;;;12.40;99.90;;;;;;5073067;28;20097;-56
2021/12/30 09:32:01;;;;;;;18.23;8.77;;;12.40;99.90;;;;;;5070306;28;20056;-57
2021/12/30 09:34:26;;;;;;;18.50;9.85;;;12.40;99.90;;;;;;5072156;28;20412;-55
2021/12/30 09:36:52;;;;;;;15.27;9.68;;;12.40;99.90;;;;;;5084595;28;20377;-56
2021/12/30 09:39:18;;;;;;;16.63;9.80;;;12.40;99.90;;;;;;5090438;28;20127;-58
2021/12/30 09:41:45;;;;;;;13.50;8.55;;;12.40;99.90;;;;;;5059957;28;20274;-58
2021/12/30 09:44:14;;;;;;;13.88;9.20;;;12.40;99.90;;;;;;5098141;28;20046;-56
2021/12/30 09:46:40;;;;;;;15.95;9.15;;;12.50;99.90;;;;;;5096937;28;20397;-56
2021/12/30 09:49:07;;;;;;;;;;;12.40;99.90;;;;;;5091633;28;20047;-56
2021/12/30 09:51:33;;;;;;;19.00;10.27;;;12.50;99.90;;;;;;5090249;28;19916;-56
2021/12/30 09:54:03;;;;;;;18.15;9.57;;;12.50;99.90;;;;;;5072987;28;20505;-54
2021/12/30 09:56:29;;;;;;;19.88;10.60;;;12.50;99.90;;;;;;5091633;28;20101;-58
2021/12/30 09:58:55;;;;;;;21.63;10.27;;;12.50;99.90;;;;;;5091263;28;20043;-58
2021/12/30 10:01:21;;;;;;;16.13;9.55;;;12.50;99.90;;;;;;5096604;28;20038;-58
2021/12/30 10:03:47;;;;;;;16.15;9.60;;;12.50;99.90;;;;;;5091370;28;20099;-57
2021/12/30 10:06:16;;;;;;;19.10;10.05;;;12.50;99.90;;;;;;5089958;28;20115;-58
2021/12/30 10:09:10;;;;;;;17.58;9.55;;;12.50;99.90;;;;;;5091680;28;20043;-57
2021/12/30 10:11:47;;;;;;;17.85;8.88;;;12.60;99.90;;;;;;5047716;28;20031;-58
2021/12/30 10:14:29;;;;;;;20.00;8.63;;;12.60;99.90;;;;;;5088891;28;20068;-55
2021/12/30 10:17:15;;;;;;;18.40;9.10;;;12.60;99.90;;;;;;5084564;28;20044;-57
2021/12/30 10:19:41;;;;;;;19.00;8.20;;;12.60;99.90;;;;;;5062690;28;20047;-58
2021/12/30 10:22:12;;;;;;;13.02;7.80;;;12.60;99.90;;;;;;5064210;28;20489;-57
2021/12/30 10:24:38;;;;;;;13.43;6.50;;;12.60;99.90;;;;;;5084542;28;20491;-58
2021/12/30 10:27:04;;;;;;;15.18;6.25;;;12.60;99.90;;;;;;5082574;28;20165;-57
2021/12/30 10:29:44;;;;;;;19.52;7.03;;;12.60;99.90;;;;;;5063046;28;20103;-56
2021/12/30 10:32:28;;;;;;;16.60;6.47;;;12.60;99.90;;;;;;5079461;28;20032;-57
2021/12/30 10:35:12;;;;;;;13.15;6.00;;;12.70;99.90;;;;;;5093772;28;20043;-58
2021/12/30 10:37:45;;;;;;;13.68;4.82;;;12.70;99.90;;;;;;5096582;28;20411;-58
2021/12/30 10:40:29;;;;;;;15.23;6.45;;;12.70;99.90;;;;;;5085542;28;20040;-57
2021/12/30 10:43:17;;;;;;;17.20;5.72;;;12.70;99.90;;;;;;5091890;28;20323;-56
2021/12/30 10:45:44;;;;;;;21.13;6.63;;;12.70;99.90;;;;;;5081572;28;20169;-57
2021/12/30 10:48:09;;;;;;;21.38;7.20;;;12.70;99.90;;;;;;5087616;28;20042;-57
2021/12/30 10:50:35;;;;;;;15.80;5.63;;;12.70;99.90;;;;;;5093440;28;20240;-58
2021/12/30 10:53:01;;;;;;;24.95;7.28;;;12.70;99.90;;;;;;5056006;28;20043;-58
2021/12/30 10:55:26;;;;;;;19.07;5.80;;;12.70;99.90;;;;;;5093311;28;20028;-56
2021/12/30 10:57:53;;;;;;;17.42;6.07;;;12.70;99.90;;;;;;5085292;28;20032;-57
2021/12/30 11:00:32;;;;;;;28.23;6.80;;;12.80;99.90;;;;;;5088198;28;20074;-57
2021/12/30 11:03:20;;;;;;;18.30;6.07;;;12.70;99.90;;;;;;5082407;28;20106;-58
2021/12/30 11:06:18;;;;;;;17.40;5.20;;;12.70;99.90;;;;;;5054166;28;20052;-57
2021/12/30 11:08:46;;;;;;;;;;;12.70;99.90;;;;;;5088887;28;20048;-58
2021/12/30 11:11:28;;;;;;;18.73;4.80;;;12.70;99.90;;;;;;5095577;28;19920;-55
2021/12/30 11:14:13;;;;;;;25.17;5.47;;;12.70;99.90;;;;;;5097367;28;20040;-57
2021/12/30 11:16:57;;;;;;;26.67;5.40;;;12.70;99.90;;;;;;5098226;28;20029;-57
2021/12/30 11:19:23;;;;;;;28.40;6.95;;;12.70;99.90;;;;;;5091492;28;20040;-58
2021/12/30 11:21:51;;;;;;;20.42;5.43;;;12.80;99.90;;;;;;5099262;28;20492;-57
2021/12/30 11:24:17;;;;;;;21.85;5.72;;;12.80;99.90;;;;;;5093846;28;20084;-57
2021/12/30 11:26:43;;;;;;;23.55;5.13;;;12.80;99.90;;;;;;5095605;28;20032;-56
2021/12/30 11:29:09;;;;;;;18.90;4.47;;;12.80;99.90;;;;;;5087552;28;20043;-57
2021/12/30 11:31:35;;;;;;;25.98;5.28;;;12.80;99.90;;;;;;5102633;28;20419;-57
2021/12/30 11:34:02;;;;;;;26.02;5.90;;;12.80;99.90;;;;;;5076688;28;20085;-57
2021/12/30 11:36:29;;;;;;;27.95;5.63;;;12.80;99.90;;;;;;5092014;28;20044;-57
2021/12/30 11:38:59;;;;;;;19.70;4.60;;;12.80;99.90;;;;;;5077500;28;20104;-55
2021/12/30 11:41:26;;;;;;;26.02;5.70;;;12.90;99.90;;;;;;5093641;28;20040;-56
2021/12/30 11:43:52;;;;;;;23.50;5.43;;;12.90;99.90;;;;;;5073088;28;20048;-54
2021/12/30 11:46:37;;;;;;;25.63;8.40;;;12.90;99.90;;;;;;5106696;28;20519;-58
2021/12/30 11:49:02;;;;;;;21.70;4.43;;;12.90;99.90;;;;;;5065616;28;20039;-56
2021/12/30 11:51:44;;;;;;;20.92;5.38;;;12.90;99.90;;;;;;5095220;28;20515;-58
2021/12/30 11:54:36;;;;;;;28.65;6.93;;;12.90;99.90;;;;;;5100997;28;20133;-57
2021/12/30 11:57:28;;;;;;;31.10;6.90;;;12.90;99.90;;;;;;5049789;28;20043;-58
2021/12/30 12:00:00;;;;;;;25.10;5.70;;;12.80;99.90;;;;;;5084326;28;20071;-57
2021/12/30 12:02:37;;;;;;;33.85;7.03;;;12.80;99.90;;;;;;5099128;28;20047;-58
2021/12/30 12:05:38;;;;;;;29.85;8.05;;;12.80;99.90;;;;;;5096969;28;20039;-58
2021/12/30 12:08:05;;;;;;;23.10;5.18;;;12.80;99.90;;;;;;5092994;28;20097;-58
2021/12/30 12:10:31;;;;;;;22.85;6.57;;;12.80;99.90;;;;;;5100775;28;20119;-59
2021/12/30 12:12:57;;;;;;;26.20;5.50;;;12.70;99.90;;;;;;5092191;28;20457;-58
2021/12/30 12:15:22;;;;;;;22.58;6.03;;;12.70;99.90;;;;;;5079353;28;20313;-58
2021/12/30 12:17:48;;;;;;;30.00;7.25;;;12.70;99.90;;;;;;5078166;28;20033;-58
2021/12/30 12:20:19;;;;;;;28.33;6.97;;;12.70;99.90;;;;;;5082157;28;20035;-57
2021/12/30 12:22:45;;;;;;;20.48;5.85;;;12.70;99.90;;;;;;5071802;28;20040;-58
2021/12/30 12:25:20;;;;;;;24.85;5.97;;;12.70;99.90;;;;;;5074870;28;20040;-58
2021/12/30 12:27:49;;;;;;;23.38;5.95;;;12.70;99.90;;;;;;5053419;28;20033;-58
2021/12/30 12:30:29;;;;;;;25.35;5.95;;;12.70;99.90;;;;;;5067840;28;20082;-58
2021/12/30 12:32:55;;;;;;;29.55;6.05;;;12.70;99.90;;;;;;5077028;28;20041;-58
2021/12/30 12:35:23;;;;;;;23.45;6.38;;;12.80;99.90;;;;;;5082083;28;20051;-58
2021/12/30 12:37:52;;;;;;;28.08;6.90;;;12.80;99.90;;;;;;5077949;28;20404;-55